Henrik Krøyer Holme

KL  EN  DA
ASIAQ
Weather Now GREENLAND SURVEY
Updated [WGT/WGST] Temperature [°C] Wind [m/s] Air pressure [hPa] Relative humidity [%] Precipitation [mm]
Present Wind chill Speed Max
27.09 00:00-7,0-18,115,4 ⇓19,6102278n/a
26.09 23:00-6,7-16,912,9 ⇓17,5102278n/a
26.09 22:00-6,5-16,111,3 ⇓16,0102280n/a
26.09 21:00-5,8-14,69,8 ⇓14,4102279n/a
26.09 20:00-5,4-15,212,9 ⇓17,0102179n/a
26.09 19:00-5,3-13,89,3 ⇓12,9102180n/a
26.09 18:00-4,9-13,810,8 ⇓13,9102081n/a
26.09 17:00-4,8-14,212,4 ⇓16,5102083n/a
26.09 16:00-5,0-13,69,8 ⇓14,4101984n/a
26.09 15:00-5,3-15,012,9 ⇓19,6101883n/a
26.09 14:00-4,9-14,713,4 ⇓20,1101882n/a
26.09 13:00-4,9-14,713,4 ⇓19,6101882n/a
26.09 12:00-4,9-15,516,5 ⇓21,6101779n/a
26.09 11:00-5,4-15,614,4 ⇓21,1101782n/a
26.09 10:00-5,4-15,614,4 ⇓19,6101780n/a
26.09 09:00-5,1-15,314,9 ⇓20,1101780n/a
26.09 08:00-5,5-15,312,9 ⇓18,5101779n/a
26.09 07:00-5,3-15,213,4 ⇓19,0101779n/a
26.09 06:00-5,2-14,812,4 ⇓18,5101779n/a
26.09 05:00-5,2-15,514,9 ⇓20,6101680n/a
26.09 04:00-5,2-14,411,3 ⇓16,5101780n/a
26.09 03:00-4,7-13,410,3 ⇓14,4101782n/a
26.09 02:00-4,8-13,911,3 ⇓16,0101778n/a
26.09 01:00-4,8-14,212,4 ⇓18,0101779n/a
26.09 00:00-4,6-14,213,4 ⇓18,5101678n/a
Position: (80.649444444,-13.7119444444)

[Back]